Time;durP1;ratioP1;P1;durP2;ratioP2;P2;SDS_P1;SDS_P2;PMS_P1;PMS_P2;Temp;Humidity;BMP_temperature;BMP_pressure;BME280_temperature;BME280_humidity;BME280_pressure;Samples;Min_cycle;Max_cycle;Signal;HPM_P1;HPM_P2
2023/03/24 00:00:40;;;;;;;;;;;23.70;99.90;;;;;;4935950;29;19925;-55
2023/03/24 00:03:06;;;;;;;;;;;23.80;99.90;;;;;;4950911;29;19907;-55
2023/03/24 00:05:32;;;;;;;;;;;23.70;99.90;;;;;;4936025;29;19907;-54
2023/03/24 00:08:01;;;;;;;;;;;23.70;99.90;;;;;;4935886;29;19907;-54
2023/03/24 00:10:33;;;;;;;;;;;23.70;99.90;;;;;;4935802;29;19907;-55
2023/03/24 00:12:59;;;;;;;;;;;23.70;99.90;;;;;;4936035;29;19906;-54
2023/03/24 00:15:25;;;;;;;;;;;23.70;99.90;;;;;;4935890;29;19914;-55
2023/03/24 00:17:51;;;;;;;;;;;23.70;99.90;;;;;;4935870;29;19910;-55
2023/03/24 00:20:18;;;;;;;;;;;23.70;99.90;;;;;;4936001;29;19911;-52
2023/03/24 00:22:47;;;;;;;;;;;23.70;99.90;;;;;;4966843;28;20257;-54
2023/03/24 00:25:13;;;;;;;;;;;23.70;99.90;;;;;;4950248;29;19913;-54
2023/03/24 00:27:39;;;;;;;;;;;23.70;99.90;;;;;;4935845;29;19959;-53
2023/03/24 00:30:06;;;;;;;;;;;23.70;99.90;;;;;;4935669;29;20271;-54
2023/03/24 00:32:31;;;;;;;;;;;23.70;99.90;;;;;;4935514;29;19989;-54
2023/03/24 00:34:57;;;;;;;;;;;23.70;99.90;;;;;;4950298;29;19967;-55
2023/03/24 00:37:23;;;;;;;;;;;23.60;99.90;;;;;;4935273;29;19957;-54
2023/03/24 00:39:49;;;;;;;;;;;23.60;99.90;;;;;;4966567;28;19915;-54
2023/03/24 00:42:15;;;;;;;;;;;23.60;99.90;;;;;;4935740;29;19906;-53
2023/03/24 00:44:43;;;;;;;;;;;23.60;99.90;;;;;;4935528;29;19929;-55
2023/03/24 00:47:10;;;;;;;;;;;23.60;99.90;;;;;;4935326;29;19907;-53
2023/03/24 00:49:41;;;;;;;;;;;23.60;99.90;;;;;;4935417;29;20311;-53
2023/03/24 00:52:19;;;;;;;;;;;23.60;99.90;;;;;;4935386;29;19978;-54
2023/03/24 00:54:48;;;;;;;;;;;23.60;99.90;;;;;;4935692;29;19985;-54
2023/03/24 00:57:21;;;;;;;;;;;23.60;99.90;;;;;;4935408;29;19907;-54
2023/03/24 00:59:47;;;;;;;;;;;23.60;99.90;;;;;;4935934;29;19927;-55
2023/03/24 01:02:14;;;;;;;;;;;23.60;99.90;;;;;;4935057;29;20275;-54
2023/03/24 01:04:40;;;;;;;;;;;23.60;99.90;;;;;;4935269;29;19950;-54
2023/03/24 01:07:09;;;;;;;;;;;23.60;99.90;;;;;;4935117;29;20334;-54
2023/03/24 01:09:36;;;;;;;;;;;23.50;99.90;;;;;;4935158;29;19906;-55
2023/03/24 01:12:03;;;;;;;;;;;23.50;99.90;;;;;;4935080;29;19931;-54
2023/03/24 01:14:31;;;;;;;;;;;23.60;99.90;;;;;;4935296;29;20459;-55
2023/03/24 01:16:57;;;;;;;;;;;23.50;99.90;;;;;;4934995;29;19907;-55
2023/03/24 01:19:24;;;;;;;;;;;23.50;99.90;;;;;;4935135;29;19938;-55
2023/03/24 01:21:50;;;;;;;;;;;23.50;99.90;;;;;;4938907;29;19918;-55
2023/03/24 01:24:17;;;;;;;;;;;23.50;99.90;;;;;;4939103;29;19913;-55
2023/03/24 01:26:43;;;;;;;;;;;23.50;99.90;;;;;;4939099;29;19977;-55
2023/03/24 01:29:09;;;;;;;;;;;23.50;99.90;;;;;;4939076;29;20342;-56
2023/03/24 01:31:35;;;;;;;;;;;23.40;99.90;;;;;;4939053;29;19911;-54
2023/03/24 01:34:01;;;;;;;;;;;23.50;99.90;;;;;;4938705;29;20005;-53
2023/03/24 01:36:26;;;;;;;;;;;23.50;99.90;;;;;;4938995;29;19954;-54
2023/03/24 01:38:52;;;;;;;;;;;23.50;99.90;;;;;;4938763;29;20397;-54
2023/03/24 01:41:17;;;;;;;;;;;23.40;99.90;;;;;;4939058;29;19907;-54
2023/03/24 01:43:43;;;;;;;;;;;23.40;99.90;;;;;;4938609;29;19906;-54
2023/03/24 01:46:09;;;;;;;;;;;23.40;99.90;;;;;;4938683;29;19907;-53
2023/03/24 01:48:38;;;;;;;;;;;23.40;99.90;;;;;;4938636;29;19907;-54
2023/03/24 01:51:15;;;;;;;;;;;23.40;99.90;;;;;;4938649;29;19906;-54
2023/03/24 01:53:44;;;;;;;;;;;23.40;99.90;;;;;;4938591;29;19906;-54
2023/03/24 01:56:11;;;;;;;;;;;23.40;99.90;;;;;;4938476;29;19911;-54
2023/03/24 01:58:38;;;;;;;;;;;23.40;99.90;;;;;;4938302;29;20355;-54
2023/03/24 02:01:04;;;;;;;;;;;23.40;99.90;;;;;;4938742;29;20279;-55
2023/03/24 02:03:35;;;;;;;;;;;23.40;99.90;;;;;;4938275;29;20287;-56
2023/03/24 02:06:03;;;;;;;;;;;23.30;99.90;;;;;;4938446;29;20434;-54
2023/03/24 02:08:32;;;;;;;;;;;23.30;99.90;;;;;;4938152;29;19914;-55
2023/03/24 02:10:59;;;;;;;;;;;23.40;99.90;;;;;;4938346;29;19914;-54
2023/03/24 02:13:25;;;;;;;;;;;23.30;99.90;;;;;;4937959;29;19997;-54
2023/03/24 02:16:03;;;;;;;;;;;23.30;99.90;;;;;;4938136;29;19949;-55
2023/03/24 02:18:46;;;;;;;;;;;23.30;99.90;;;;;;4938052;29;19915;-55
2023/03/24 02:21:18;;;;;;;;;;;23.30;99.90;;;;;;4938200;29;19910;-54
2023/03/24 02:23:59;;;;;;;;;;;23.30;99.90;;;;;;4937876;29;19907;-54
2023/03/24 02:26:54;;;;;;;;;;;23.30;99.90;;;;;;4937973;29;19961;-54
2023/03/24 02:29:28;;;;;;;;;;;23.30;99.90;;;;;;4916939;29;19907;-53
2023/03/24 02:32:12;;;;;;;;;;;23.30;99.90;;;;;;4933624;29;19913;-54
2023/03/24 02:34:48;;;;;;;;;;;23.30;99.90;;;;;;4937997;29;20005;-55
2023/03/24 02:37:32;;;;;;;;;;;23.20;99.90;;;;;;4937474;29;19914;-54
2023/03/24 02:40:07;;;;;;;;;;;23.20;99.90;;;;;;4937635;29;19962;-55
2023/03/24 02:42:35;;;;;;;;;;;23.30;99.90;;;;;;4937765;29;19907;-54
2023/03/24 02:45:13;;;;;;;;;;;23.20;99.90;;;;;;4937466;29;20351;-54
2023/03/24 02:47:44;;;;;;;;;;;23.20;99.90;;;;;;4937896;29;19907;-55
2023/03/24 02:50:30;;;;;;;;;;;23.20;99.90;;;;;;4937782;29;19977;-54
2023/03/24 02:53:02;;;;;;;;;;;23.20;99.90;;;;;;4933752;29;19907;-54
2023/03/24 02:55:33;;;;;;;;;;;23.10;99.90;;;;;;4937353;29;19913;-54
2023/03/24 02:58:06;;;;;;;;;;;23.20;99.90;;;;;;4937388;29;19915;-54
2023/03/24 03:00:40;;;;;;;;;;;23.20;99.90;;;;;;4937764;29;19926;-55
2023/03/24 03:03:12;;;;;;;;;;;23.20;99.90;;;;;;4937261;29;19906;-55
2023/03/24 03:05:40;;;;;;;;;;;23.20;99.90;;;;;;4937251;29;19913;-55
2023/03/24 03:08:08;;;;;;;;;;;23.20;99.90;;;;;;4937195;29;19911;-55
2023/03/24 03:10:38;;;;;;;;;;;23.10;99.90;;;;;;4932613;29;19911;-55
2023/03/24 03:13:10;;;;;;;;;;;23.10;99.90;;;;;;4929351;29;19911;-55
2023/03/24 03:15:42;;;;;;;;;;;23.10;99.90;;;;;;4937021;29;19932;-55
2023/03/24 03:18:07;;;;;;;;;;;23.10;99.90;;;;;;4951655;29;19915;-55
2023/03/24 03:20:36;;;;;;;;;;;23.10;99.90;;;;;;4937093;29;19914;-55
2023/03/24 03:23:05;;;;;;;;;;;23.10;99.90;;;;;;4937010;29;19918;-55
2023/03/24 03:25:37;;;;;;;;;;;23.10;99.90;;;;;;4936746;29;19907;-55
2023/03/24 03:28:04;;;;;;;;;;;23.10;99.90;;;;;;4936930;29;20355;-54
2023/03/24 03:30:40;;;;;;;;;;;23.10;99.90;;;;;;4936735;29;19962;-53
2023/03/24 03:33:16;;;;;;;;;;;23.00;99.90;;;;;;4936746;29;19910;-53
2023/03/24 03:35:49;;;;;;;;;;;23.00;99.90;;;;;;4936948;29;19986;-55
2023/03/24 03:38:19;;;;;;;;;;;23.00;99.90;;;;;;4936642;29;20236;-54
2023/03/24 03:40:56;;;;;;;;;;;23.00;99.90;;;;;;4936845;29;19970;-54
2023/03/24 03:43:22;;;;;;;;;;;23.00;99.90;;;;;;4936056;29;19914;-53
2023/03/24 03:45:47;;;;;;;;;;;23.00;99.90;;;;;;4936503;29;19906;-54
2023/03/24 03:48:14;;;;;;;;;;;23.00;99.90;;;;;;4936595;29;20413;-53
2023/03/24 03:50:40;;;;;;;;;;;23.00;99.90;;;;;;4936469;29;19906;-54
2023/03/24 03:53:06;;;;;;;;;;;23.00;99.90;;;;;;4936366;29;19918;-55
2023/03/24 03:55:34;;;;;;;;;;;23.00;99.90;;;;;;4934893;29;19977;-54
2023/03/24 03:58:00;;;;;;;;;;;22.90;99.90;;;;;;4936351;29;19937;-54
2023/03/24 04:00:26;;;;;;;;;;;22.90;99.90;;;;;;4936391;29;19969;-55
2023/03/24 04:03:10;;;;;;;;;;;22.90;99.90;;;;;;4936262;29;20394;-53
2023/03/24 04:05:38;;;;;;;;;;;22.90;99.90;;;;;;4950943;29;19934;-55
2023/03/24 04:08:07;;;;;;;;;;;22.90;99.90;;;;;;4936276;29;19906;-54
2023/03/24 04:10:51;;;;;;;;;;;22.90;99.90;;;;;;4936056;29;19903;-55
2023/03/24 04:13:34;;;;;;;;;;;22.90;99.90;;;;;;4936442;29;20302;-55
2023/03/24 04:16:06;;;;;;;;;;;22.90;99.90;;;;;;4925577;29;19914;-55
2023/03/24 04:18:38;;;;;;;;;;;22.90;99.90;;;;;;4935859;29;19918;-56
2023/03/24 04:21:37;;;;;;;;;;;22.90;99.90;;;;;;4936068;29;19968;-56
2023/03/24 04:24:09;;;;;;;;;;;22.80;99.90;;;;;;4924658;29;19918;-55
2023/03/24 04:26:42;;;;;;;;;;;22.80;99.90;;;;;;4935837;29;19994;-54
2023/03/24 04:29:11;;;;;;;;;;;22.80;99.90;;;;;;4923981;29;19914;-55
2023/03/24 04:31:40;;;;;;;;;;;22.80;99.90;;;;;;4935680;29;19906;-54
2023/03/24 04:34:11;;;;;;;;;;;22.80;99.90;;;;;;4935523;29;20367;-55
2023/03/24 04:37:05;;;;;;;;;;;22.80;99.90;;;;;;4935650;29;19953;-55
2023/03/24 04:39:34;;;;;;;;;;;22.80;99.90;;;;;;4931023;29;19915;-54
2023/03/24 04:42:05;;;;;;;;;;;22.80;99.90;;;;;;4935514;29;19914;-54
2023/03/24 04:44:31;;;;;;;;;;;22.80;99.90;;;;;;4935465;29;19911;-53
2023/03/24 04:46:59;;;;;;;;;;;22.70;99.90;;;;;;4935414;29;19907;-55
2023/03/24 04:49:24;;;;;;;;;;;22.80;99.90;;;;;;4935512;29;19907;-55
2023/03/24 04:51:50;;;;;;;;;;;22.70;99.90;;;;;;4935427;29;19914;-54
2023/03/24 04:54:16;;;;;;;;;;;22.70;99.90;;;;;;4935189;29;19903;-54
2023/03/24 04:56:47;;;;;;;;;;;22.70;99.90;;;;;;4934936;29;19986;-54
2023/03/24 04:59:16;;;;;;;;;;;22.70;99.90;;;;;;4935423;29;19934;-54
2023/03/24 05:01:53;;;;;;;;;;;22.70;99.90;;;;;;4914876;29;19982;-48
2023/03/24 05:04:23;;;;;;;;;;;22.70;99.90;;;;;;4916857;29;20355;-48
2023/03/24 05:06:49;;;;;;;;;;;22.70;99.90;;;;;;4931096;29;19970;-47
2023/03/24 05:09:16;;;;;;;;;;;22.70;99.90;;;;;;4916561;29;20387;-47
2023/03/24 05:11:42;;;;;;;;;;;22.70;99.90;;;;;;4916141;29;20286;-48
2023/03/24 05:14:08;;;;;;;;;;;22.70;99.90;;;;;;4916250;29;20324;-47
2023/03/24 05:16:34;;;;;;;;;;;22.70;99.90;;;;;;4916100;29;19946;-48
2023/03/24 05:19:00;;;;;;;;;;;22.70;99.90;;;;;;4916172;29;19955;-47
2023/03/24 05:21:26;;;;;;;;;;;22.70;99.90;;;;;;4916266;29;19933;-47
2023/03/24 05:23:52;;;;;;;;;;;22.70;99.90;;;;;;4915977;29;20364;-47
2023/03/24 05:26:17;;;;;;;;;;;22.60;99.90;;;;;;4916308;29;19907;-47
2023/03/24 05:28:43;;;;;;;;;;;22.60;99.90;;;;;;4916031;29;20313;-47
2023/03/24 05:31:08;;;;;;;;;;;22.60;99.90;;;;;;4930657;29;19907;-47
2023/03/24 05:33:34;;;;;;;;;;;22.60;99.90;;;;;;4916208;29;19916;-47
2023/03/24 05:36:00;;;;;;;;;;;22.60;99.90;;;;;;4916110;29;20335;-47
2023/03/24 05:38:25;;;;;;;;;;;22.60;99.90;;;;;;4913162;29;20002;-47
2023/03/24 05:40:51;;;;;;;;;;;22.60;99.90;;;;;;4911841;29;19939;-47
2023/03/24 05:43:17;;;;;;;;;;;22.60;99.90;;;;;;4910872;29;20006;-48
2023/03/24 05:45:42;;;;;;;;;;;22.60;99.90;;;;;;4915976;29;19935;-48
2023/03/24 05:48:08;;;;;;;;;;;22.60;99.90;;;;;;4915960;29;20046;-47
2023/03/24 05:50:34;;;;;;;;;;;22.60;99.90;;;;;;4915774;29;19907;-48
2023/03/24 05:52:59;;;;;;;;;;;22.60;99.90;;;;;;4916250;29;19907;-48
2023/03/24 05:55:26;;;;;;;;;;;22.60;99.90;;;;;;4915887;29;19907;-48
2023/03/24 05:57:52;;;;;;;;;;;22.60;99.90;;;;;;4916074;29;19922;-48
2023/03/24 06:00:19;;;;;;;;;;;22.60;99.90;;;;;;4915771;29;20288;-48
2023/03/24 06:02:45;;;;;;;;;;;22.60;99.90;;;;;;4915721;29;19914;-47
2023/03/24 06:05:11;;;;;;;;;;;22.60;99.90;;;;;;4915975;29;19907;-48
2023/03/24 06:07:37;;;;;;;;;;;22.60;99.90;;;;;;4918705;29;19966;-47
2023/03/24 06:10:06;;;;;;;;;;;22.60;99.90;;;;;;4919261;29;19910;-48
2023/03/24 06:12:32;;;;;;;;;;;22.60;99.90;;;;;;4919230;29;20367;-48
2023/03/24 06:14:57;;;;;;;;;;;22.60;99.90;;;;;;4949702;29;19907;-48
2023/03/24 06:17:23;;;;;;;;;;;22.50;99.90;;;;;;4919289;29;19955;-48
2023/03/24 06:19:49;;;;;;;;;;;22.60;99.90;;;;;;4919442;29;19911;-47
2023/03/24 06:22:19;;;;;;;;;;;22.50;99.90;;;;;;4919000;29;19908;-47
2023/03/24 06:24:48;;;;;;;;;;;22.50;99.90;;;;;;4919209;29;20421;-47
2023/03/24 06:27:14;;;;;;;;;;;22.50;99.90;;;;;;4919035;29;20804;-48
2023/03/24 06:29:43;;;;;;;;;;;22.50;99.90;;;;;;4918844;29;19914;-48
2023/03/24 06:32:09;;;;;;;;;;;22.50;99.90;;;;;;4918808;29;19911;-47
2023/03/24 06:34:34;;;;;;;;;;;22.50;99.90;;;;;;4918719;29;20035;-47
2023/03/24 06:37:00;;;;;;;;;;;22.50;99.90;;;;;;4933350;29;19907;-48
2023/03/24 06:39:25;;;;;;;;;;;22.50;99.90;;;;;;4933279;29;19915;-48
2023/03/24 06:41:51;;;;;;;;;;;22.50;99.90;;;;;;4918856;29;19907;-48
2023/03/24 06:44:17;;;;;;;;;;;22.50;99.90;;;;;;4918626;29;19929;-48
2023/03/24 06:46:44;;;;;;;;;;;22.50;99.90;;;;;;4917459;29;20009;-48
2023/03/24 06:49:10;;;;;;;;;;;22.50;99.90;;;;;;4918751;29;20304;-47
2023/03/24 06:51:36;;;;;;;;;;;22.50;99.90;;;;;;4918371;29;19907;-48
2023/03/24 06:54:02;;;;;;;;;;;22.50;99.90;;;;;;4933081;29;19907;-48
2023/03/24 06:56:28;;;;;;;;;;;22.50;99.90;;;;;;4918299;29;20463;-47
2023/03/24 06:58:53;;;;;;;;;;;22.50;99.90;;;;;;4918614;29;20010;-48
2023/03/24 07:01:19;;;;;;;;;;;22.50;99.90;;;;;;4918278;29;19919;-48
2023/03/24 07:03:45;;;;;;;;;;;22.50;99.90;;;;;;4918242;29;20344;-48
2023/03/24 07:06:10;;;;;;;;;;;22.50;99.90;;;;;;4918311;29;19907;-48
2023/03/24 07:08:36;;;;;;;;;;;22.60;99.90;;;;;;4918154;29;20006;-48
2023/03/24 07:11:02;;;;;;;;;;;22.50;99.90;;;;;;4918101;29;19907;-48
2023/03/24 07:13:28;;;;;;;;;;;22.50;99.90;;;;;;4918033;29;19915;-47
2023/03/24 07:15:54;;;;;;;;;;;22.50;99.90;;;;;;4918383;29;19914;-47
2023/03/24 07:18:20;;;;;;;;;;;22.60;99.90;;;;;;4917243;29;19923;-47
2023/03/24 07:20:46;;;;;;;;;;;22.60;99.90;;;;;;4918064;29;19961;-47
2023/03/24 07:23:12;;;;;;;;;;;22.60;99.90;;;;;;4917945;29;19911;-47
2023/03/24 07:25:40;;;;;;;;;;;22.60;99.90;;;;;;4917848;29;19914;-47
2023/03/24 07:28:07;;;;;;;;;;;22.60;99.90;;;;;;4917768;29;19907;-47
2023/03/24 07:30:34;;;;;;;;;;;22.60;99.90;;;;;;4917870;29;20388;-47
2023/03/24 07:33:00;;;;;;;;;;;22.60;99.90;;;;;;4917674;29;19952;-47
2023/03/24 07:35:26;;;;;;;;;;;22.60;99.90;;;;;;4917942;29;19911;-47
2023/03/24 07:37:52;;;;;;;;;;;22.60;99.90;;;;;;4917551;29;20257;-48
2023/03/24 07:40:17;;;;;;;;;;;22.70;99.90;;;;;;4917507;29;19911;-47
2023/03/24 07:42:43;;;;;;;;;;;22.70;99.90;;;;;;4917608;29;19962;-47
2023/03/24 07:45:10;;;;;;;;;;;22.70;99.90;;;;;;4917343;29;19915;-49
2023/03/24 07:47:37;;;;;;;;;;;22.70;99.90;;;;;;4917528;29;20006;-47
2023/03/24 07:50:08;;;;;;;;;;;22.70;99.90;;;;;;4913346;29;20341;-47
2023/03/24 07:52:38;;;;;;;;;;;22.70;99.90;;;;;;4917491;29;19926;-48
2023/03/24 07:55:11;;;;;;;;;;;22.80;99.90;;;;;;4917196;29;19914;-47
2023/03/24 07:57:39;;;;;;;;;;;22.80;99.90;;;;;;4917426;29;19907;-48
2023/03/24 08:00:13;;;;;;;;;;;22.70;99.90;;;;;;4917135;29;20283;-48
2023/03/24 08:02:38;;;;;;;;;;;22.80;99.90;;;;;;4905709;29;20394;-47
2023/03/24 08:05:04;;;;;;;;;;;22.80;99.90;;;;;;4917337;29;19907;-48
2023/03/24 08:07:30;;;;;;;;;;;22.80;99.90;;;;;;4917066;29;19914;-51
2023/03/24 08:09:55;;;;;;;;;;;22.80;99.90;;;;;;4948104;29;19998;-48
2023/03/24 08:12:21;;;;;;;;;;;22.80;99.90;;;;;;4917076;29;19907;-47
2023/03/24 08:14:47;;;;;;;;;;;22.80;99.90;;;;;;4916975;29;20271;-47
2023/03/24 08:17:12;;;;;;;;;;;22.80;99.90;;;;;;4916949;29;19914;-47
2023/03/24 08:19:38;;;;;;;;;;;22.90;99.90;;;;;;4917075;29;19965;-47
2023/03/24 08:22:03;;;;;;;;;;;22.80;99.90;;;;;;4916737;29;19938;-47
2023/03/24 08:24:29;;;;;;;;;;;22.90;99.90;;;;;;4916972;29;19907;-47
2023/03/24 08:26:58;;;;;;;;;;;22.90;99.90;;;;;;4916757;29;19911;-48
2023/03/24 08:29:24;;;;;;;;;;;22.90;99.90;;;;;;4912407;29;19930;-48
2023/03/24 08:31:49;;;;;;;;;;;22.90;99.90;;;;;;4912211;29;20364;-48
2023/03/24 08:34:15;;;;;;;;;;;22.90;99.90;;;;;;4904358;29;19962;-47
2023/03/24 08:36:41;;;;;;;;;;;22.90;99.90;;;;;;4916678;29;20253;-48
2023/03/24 08:39:08;;;;;;;;;;;22.90;99.90;;;;;;4916600;29;20007;-47
2023/03/24 08:41:34;;;;;;;;;;;23.00;99.90;;;;;;4916746;29;19962;-47
2023/03/24 08:44:02;;;;;;;;;;;22.90;99.90;;;;;;4916663;29;19907;-49
2023/03/24 08:46:29;;;;;;;;;;;22.90;99.90;;;;;;4946734;29;20364;-48
2023/03/24 08:48:56;;;;;;;;;;;23.00;99.90;;;;;;4916569;29;19911;-48
2023/03/24 08:51:22;;;;;;;;;;;23.00;99.90;;;;;;4916543;29;20339;-48
2023/03/24 08:53:48;;;;;;;;;;;23.00;99.90;;;;;;4916348;29;19907;-48
2023/03/24 08:56:13;;;;;;;;;;;23.00;99.90;;;;;;4947022;29;19907;-48
2023/03/24 08:58:39;;;;;;;;;;;23.00;99.90;;;;;;4930753;29;19930;-48
2023/03/24 09:01:05;;;;;;;;;;;23.00;99.90;;;;;;4916292;29;20029;-48
2023/03/24 09:03:30;;;;;;;;;;;23.00;99.90;;;;;;4916384;29;19907;-48
2023/03/24 09:05:57;;;;;;;;;;;23.00;99.90;;;;;;4930771;29;19907;-48
2023/03/24 09:08:22;;;;;;;;;;;23.00;99.90;;;;;;4916332;29;20621;-48
2023/03/24 09:10:48;;;;;;;;;;;23.10;99.90;;;;;;4916318;29;20343;-48
2023/03/24 09:13:15;;;;;;;;;;;23.10;99.90;;;;;;4916395;29;19907;-48
2023/03/24 09:15:50;;;;;;;;;;;23.10;99.90;;;;;;4915975;29;19997;-47
2023/03/24 09:18:17;;;;;;;;;;;23.10;99.90;;;;;;4916303;29;20398;-48
2023/03/24 09:20:43;;;;;;;;;;;23.10;99.90;;;;;;4916105;29;19907;-48
2023/03/24 09:23:09;;;;;;;;;;;23.10;99.90;;;;;;4916065;29;19947;-48
2023/03/24 09:25:34;;;;;;;;;;;23.10;99.90;;;;;;4916075;29;20402;-48
2023/03/24 09:28:01;;;;;;;;;;;23.20;99.90;;;;;;4916237;29;20392;-49
2023/03/24 09:30:26;;;;;;;;;;;23.10;99.90;;;;;;4930548;29;19919;-48
2023/03/24 09:32:52;;;;;;;;;;;23.10;99.90;;;;;;4916040;29;19907;-48
2023/03/24 09:35:18;;;;;;;;;;;23.20;99.90;;;;;;4916078;29;19915;-47
2023/03/24 09:37:44;;;;;;;;;;;23.20;99.90;;;;;;4915999;29;20371;-48
2023/03/24 09:40:16;;;;;;;;;;;23.20;99.90;;;;;;4915972;29;19914;-48
2023/03/24 09:42:42;;;;;;;;;;;23.20;99.90;;;;;;4919334;29;19999;-49
2023/03/24 09:45:16;;;;;;;;;;;23.20;99.90;;;;;;4919502;29;20364;-48
2023/03/24 09:47:47;;;;;;;;;;;23.20;99.90;;;;;;4919710;29;20271;-48
2023/03/24 09:50:19;;;;;;;;;;;23.30;99.90;;;;;;4919503;29;19914;-48
2023/03/24 09:52:46;;;;;;;;;;;23.30;99.90;;;;;;4919510;29;19907;-48
2023/03/24 09:55:15;;;;;;;;;;;23.30;99.90;;;;;;4916155;29;19966;-48
2023/03/24 09:57:43;;;;;;;;;;;23.30;99.90;;;;;;4919466;29;19910;-48
2023/03/24 10:00:09;;;;;;;;;;;23.40;99.90;;;;;;4919224;29;20424;-48
2023/03/24 10:02:35;;;;;;;;;;;23.40;99.90;;;;;;4919537;29;19907;-51
2023/03/24 10:05:00;;;;;;;;;;;23.40;99.90;;;;;;4919540;29;20276;-48
2023/03/24 10:07:55;;;;;;;;;;;23.40;99.90;;;;;;4919282;29;20283;-48
2023/03/24 10:10:27;;;;;;;;;;;23.40;99.90;;;;;;4904882;29;19914;-48
2023/03/24 10:12:55;;;;;;;;;;;23.40;99.90;;;;;;4919306;29;19907;-48
2023/03/24 10:15:31;;;;;;;;;;;23.50;99.90;;;;;;4919001;29;19914;-48
2023/03/24 10:18:00;;;;;;;;;;;23.50;99.90;;;;;;4919023;29;20101;-48
2023/03/24 10:20:40;;;;;;;;;;;23.60;99.90;;;;;;4919099;29;20495;-48
2023/03/24 10:23:16;;;;;;;;;;;23.60;99.90;;;;;;4919152;29;19907;-48
2023/03/24 10:25:50;;;;;;;;;;;23.60;99.90;;;;;;4918928;29;19911;-48
2023/03/24 10:28:24;;;;;;;;;;;23.60;99.90;;;;;;4919135;29;19962;-48
2023/03/24 10:30:51;;;;;;;;;;;23.60;99.90;;;;;;4918815;29;20356;-48
2023/03/24 10:33:17;;;;;;;;;;;23.70;99.90;;;;;;4918849;29;19958;-49
2023/03/24 10:35:59;;;;;;;;;;;23.70;99.90;;;;;;4918638;29;19911;-48
2023/03/24 10:38:24;;;;;;;;;;;23.70;99.90;;;;;;4918787;29;20419;-48
2023/03/24 10:40:51;;;;;;;;;;;23.80;99.90;;;;;;4918678;29;19907;-48
2023/03/24 10:43:17;;;;;;;;;;;23.80;99.90;;;;;;4918723;29;20351;-48
2023/03/24 10:45:48;;;;;;;;;;;23.80;99.90;;;;;;4918433;29;19947;-48
2023/03/24 10:48:31;;;;;;;;;;;23.80;99.90;;;;;;4918675;29;19914;-48
2023/03/24 10:50:57;;;;;;;;;;;23.90;99.90;;;;;;4918593;29;19993;-48
2023/03/24 10:53:23;;;;;;;;;;;23.90;99.90;;;;;;4917646;29;19965;-48
2023/03/24 10:55:49;;;;;;;;;;;23.90;99.90;;;;;;4918120;29;19913;-48
2023/03/24 10:58:27;;;;;;;;;;;23.90;99.90;;;;;;4918377;29;20328;-48
2023/03/24 11:00:53;;;;;;;;;;;23.90;99.90;;;;;;4918082;29;19947;-49
2023/03/24 11:03:25;;;;;;;;;;;24.00;99.90;;;;;;4918189;29;19907;-48
2023/03/24 11:05:56;;;;;;;;;;;24.00;99.90;;;;;;4918198;29;20391;-48
2023/03/24 11:08:27;;;;;;;;;;;24.00;99.90;;;;;;4918204;29;19907;-48
2023/03/24 11:10:53;;;;;;;;;;;24.00;99.90;;;;;;4918203;29;19919;-48
2023/03/24 11:13:22;;;;;;;;;;;24.10;99.90;;;;;;4932566;29;19914;-48
2023/03/24 11:16:04;;;;;;;;;;;24.10;99.90;;;;;;4917817;29;19999;-48
2023/03/24 11:18:31;;;;;;;;;;;24.10;99.90;;;;;;4918020;29;20014;-48
2023/03/24 11:21:05;;;;;;;;;;;24.10;99.90;;;;;;4918070;29;19947;-48
2023/03/24 11:23:30;;;;;;;;;;;24.10;99.90;;;;;;4917908;29;19935;-48
2023/03/24 11:26:05;;;;;;;;;;;24.20;99.90;;;;;;4917800;29;19911;-48
2023/03/24 11:28:35;;;;;;;;;;;24.20;99.90;;;;;;4917774;29;20343;-48
2023/03/24 11:31:05;;;;;;;;;;;24.20;99.90;;;;;;4918021;29;20276;-48
2023/03/24 11:33:32;;;;;;;;;;;24.20;99.90;;;;;;4917585;29;19924;-48
2023/03/24 11:35:58;;;;;;;;;;;24.30;99.90;;;;;;4917623;29;19907;-48
2023/03/24 11:38:31;;;;;;;;;;;24.30;99.90;;;;;;4917490;29;19915;-48
2023/03/24 11:41:03;;;;;;;;;;;24.30;99.90;;;;;;4917521;29;20010;-48
2023/03/24 11:43:29;;;;;;;;;;;24.30;99.90;;;;;;4917649;29;19934;-48
2023/03/24 11:46:12;;;;;;;;;;;24.30;99.90;;;;;;4917416;29;20400;-48
2023/03/24 11:48:48;;;;;;;;;;;24.40;99.90;;;;;;4932172;29;19914;-48
2023/03/24 11:51:16;;;;;;;;;;;24.40;99.90;;;;;;4917444;29;19907;-48
2023/03/24 11:53:46;;;;;;;;;;;24.40;99.90;;;;;;4917148;29;20005;-48
2023/03/24 11:56:16;;;;;;;;;;;24.40;99.90;;;;;;4917146;29;20327;-48
2023/03/24 11:58:44;;;;;;;;;;;24.40;99.90;;;;;;4917076;29;19915;-48
2023/03/24 12:01:13;;;;;;;;;;;24.50;99.90;;;;;;4917459;29;19951;-49
2023/03/24 12:03:48;;;;;;;;;;;24.50;99.90;;;;;;4931558;29;20315;-48
2023/03/24 12:06:32;;;;;;;;;;;24.50;99.90;;;;;;4917054;29;19907;-48
2023/03/24 12:09:13;;;;;;;;;;;24.50;99.90;;;;;;4917058;29;19946;-48
2023/03/24 12:11:47;;;;;;;;;;;24.50;99.90;;;;;;4917339;29;19907;-48
2023/03/24 12:14:18;;;;;;;;;;;24.50;99.90;;;;;;4916793;29;19992;-48
2023/03/24 12:16:46;;;;;;;;;;;24.60;99.90;;;;;;4917006;29;19914;-48
2023/03/24 12:19:12;;;;;;;;;;;24.60;99.90;;;;;;4916687;29;19938;-48
2023/03/24 12:21:49;;;;;;;;;;;24.60;99.90;;;;;;4916764;29;20407;-48
2023/03/24 12:24:21;;;;;;;;;;;24.60;99.90;;;;;;4902720;29;19915;-48
2023/03/24 12:26:49;;;;;;;;;;;24.60;99.90;;;;;;4916636;29;19907;-47
2023/03/24 12:29:17;;;;;;;;;;;24.60;99.90;;;;;;4916725;29;20054;-47
2023/03/24 12:31:52;;;;;;;;;;;24.70;99.90;;;;;;4917075;29;20283;-47
2023/03/24 12:34:33;;;;;;;;;;;24.70;99.90;;;;;;4916430;29;19914;-48
2023/03/24 12:37:10;;;;;;;;;;;24.70;99.90;;;;;;4916570;29;19907;-47
2023/03/24 12:39:44;;;;;;;;;;;24.70;99.90;;;;;;4916315;29;19915;-47
2023/03/24 12:42:14;;;;;;;;;;;24.70;99.90;;;;;;4916713;29;19994;-47
2023/03/24 12:44:40;;;;;;;;;;;24.70;99.90;;;;;;4916694;29;20244;-48
2023/03/24 12:47:28;;;;;;;;;;;24.70;99.90;;;;;;4916446;29;19930;-47
2023/03/24 12:50:13;;;;;;;;;;;24.70;99.90;;;;;;4916460;29;19915;-47
2023/03/24 12:52:38;;;;;;;;;;;24.80;99.90;;;;;;4904591;29;19958;-48
2023/03/24 12:55:11;;;;;;;;;;;24.80;99.90;;;;;;4931292;29;19950;-47
2023/03/24 12:57:43;;;;;;;;;;;24.80;99.90;;;;;;4930947;29;19911;-47
2023/03/24 13:00:15;;;;;;;;;;;24.80;99.90;;;;;;4916295;29;20056;-48
2023/03/24 13:02:44;;;;;;;;;;;24.80;99.90;;;;;;4916351;29;19950;-47
2023/03/24 13:05:42;;;;;;;;;;;24.90;99.90;;;;;;4916292;29;19907;-47
2023/03/24 13:08:15;;;;;;;;;;;24.80;99.90;;;;;;4915077;29;19914;-47
2023/03/24 13:10:41;;;;;;;;;;;24.90;99.90;;;;;;4916480;29;19907;-51
2023/03/24 13:13:13;;;;;;;;;;;24.90;99.90;;;;;;4916183;29;19997;-48
2023/03/24 13:15:47;;;;;;;;;;;24.90;99.90;;;;;;4915397;29;19963;-48
2023/03/24 13:18:13;;;;;;;;;;;24.90;99.90;;;;;;4930942;29;20324;-48
2023/03/24 13:20:41;;;;;;;;;;;24.90;99.90;;;;;;4916140;29;19914;-48
2023/03/24 13:23:25;;;;;;;;;;;25.00;99.90;;;;;;4916172;29;19925;-48
2023/03/24 13:25:51;;;;;;;;;;;25.00;99.90;;;;;;4930508;29;19914;-48
2023/03/24 13:28:20;;;;;;;;;;;25.00;99.90;;;;;;4930690;29;20327;-48
2023/03/24 13:30:46;;;;;;;;;;;25.00;99.90;;;;;;4916250;29;20356;-48
2023/03/24 13:33:17;;;;;;;;;;;25.00;99.90;;;;;;4916361;29;19907;-48
2023/03/24 13:35:42;;;;;;;;;;;25.00;99.90;;;;;;4916157;29;20010;-48
2023/03/24 13:38:15;;;;;;;;;;;25.00;99.90;;;;;;4915843;29;19962;-49
2023/03/24 13:40:42;;;;;;;;;;;25.00;99.90;;;;;;4915830;29;19907;-48
2023/03/24 13:43:18;;;;;;;;;;;25.00;99.90;;;;;;4916033;29;19911;-48
2023/03/24 13:45:48;;;;;;;;;;;25.00;99.90;;;;;;4916168;29;20014;-48
2023/03/24 13:48:27;;;;;;;;;;;25.00;99.90;;;;;;4916103;29;20364;-48
2023/03/24 13:51:02;;;;;;;;;;;25.10;99.90;;;;;;4915847;29;19914;-48
2023/03/24 13:53:38;;;;;;;;;;;25.10;99.90;;;;;;4915954;29;19911;-48
2023/03/24 13:56:05;;;;;;;;;;;25.10;99.90;;;;;;4915769;29;19907;-48
2023/03/24 13:59:05;;;;;;;;;;;25.10;99.90;;;;;;4915794;29;19915;-48
2023/03/24 14:01:38;;;;;;;;;;;25.10;99.90;;;;;;4915558;29;19919;-48
2023/03/24 14:04:19;;;;;;;;;;;25.10;99.90;;;;;;4915934;29;19906;-48
2023/03/24 14:06:45;;;;;;;;;;;25.10;99.90;;;;;;4930561;29;20013;-48
2023/03/24 14:09:24;;;;;;;;;;;25.10;99.90;;;;;;4915580;29;19950;-48
2023/03/24 14:11:55;;;;;;;;;;;25.10;99.90;;;;;;4915830;29;19914;-48
2023/03/24 14:14:22;;;;;;;;;;;25.10;99.90;;;;;;4915512;29;19907;-48
2023/03/24 14:16:51;;;;;;;;;;;25.10;99.90;;;;;;4915986;29;19903;-50
2023/03/24 14:19:21;;;;;;;;;;;25.20;99.90;;;;;;4915575;29;19923;-48
2023/03/24 14:21:51;;;;;;;;;;;25.10;99.90;;;;;;4915812;29;20376;-48
2023/03/24 14:24:24;;;;;;;;;;;25.20;99.90;;;;;;4915736;29;19911;-48
2023/03/24 14:26:49;;;;;;;;;;;25.20;99.90;;;;;;4916018;29;19994;-48
2023/03/24 14:29:33;;;;;;;;;;;25.20;99.90;;;;;;4919096;29;19914;-49